Time;durP1;ratioP1;P1;durP2;ratioP2;P2;SDS_P1;SDS_P2;PMS_P1;PMS_P2;Temp;Humidity;BMP_temperature;BMP_pressure;BME280_temperature;BME280_humidity;BME280_pressure;Samples;Min_cycle;Max_cycle;Signal;HPM_P1;HPM_P2
2023/01/10 00:02:31;;;;;;;15.50;4.40;;;;;;;4.87;100.00;100249.00;5979271;28;20573;-76
2023/01/10 00:05:26;;;;;;;12.17;4.13;;;;;;;4.89;100.00;100258.47;5980055;28;20031;-76
2023/01/10 00:08:21;;;;;;;9.13;4.50;;;;;;;4.73;100.00;100247.47;5979935;29;20054;-76
2023/01/10 00:14:33;;;;;;;;;;;;;;;4.73;100.00;100274.56;5979743;29;20043;-76
2023/01/10 00:17:29;;;;;;;13.60;4.05;;;;;;;4.68;100.00;100268.84;5962407;29;20281;-75
2023/01/10 00:20:24;;;;;;;12.70;5.57;;;;;;;4.74;100.00;100278.03;5979758;28;20042;-75
2023/01/10 00:23:19;;;;;;;16.00;5.37;;;;;;;4.77;100.00;100275.19;5978742;29;20038;-76
2023/01/10 00:26:16;;;;;;;16.92;5.75;;;;;;;4.93;100.00;100298.44;5978835;28;20310;-75
2023/01/10 00:29:11;;;;;;;14.20;5.57;;;;;;;4.93;100.00;100290.56;5979487;28;20058;-76
2023/01/10 00:32:06;;;;;;;13.87;6.53;;;;;;;5.04;100.00;100303.69;5979414;29;20035;-75
2023/01/10 00:35:05;;;;;;;18.33;6.13;;;;;;;5.04;100.00;100301.06;5980119;29;20039;-76
2023/01/10 00:38:04;;;;;;;17.95;5.45;;;;;;;5.09;100.00;100291.03;5983022;28;20027;-75
2023/01/10 00:41:00;;;;;;;16.73;6.07;;;;;;;5.10;100.00;100292.72;5979201;28;20069;-77
2023/01/10 00:43:58;;;;;;;19.48;6.93;;;;;;;5.15;100.00;100306.31;5978800;28;20068;-76
2023/01/10 00:46:53;;;;;;;20.25;6.45;;;;;;;5.24;100.00;100331.88;5966754;28;20167;-77
2023/01/10 00:49:48;;;;;;;13.33;5.47;;;;;;;5.13;100.00;100324.00;5979261;29;20438;-76
2023/01/10 00:52:44;;;;;;;16.37;6.10;;;;;;;4.99;100.00;100297.97;5979054;29;20031;-77
2023/01/10 00:55:39;;;;;;;18.37;5.73;;;;;;;5.18;100.00;100332.34;5981902;28;20283;-77
2023/01/10 00:58:35;;;;;;;13.75;5.68;;;;;;;5.20;100.00;100335.69;5979391;29;20474;-77
2023/01/10 01:01:30;;;;;;;18.07;6.17;;;;;;;5.25;100.00;100350.13;5979661;29;20039;-77
2023/01/10 01:04:25;;;;;;;15.07;5.97;;;;;;;5.24;100.00;100352.91;5978637;29;20031;-78
2023/01/10 01:07:21;;;;;;;15.37;5.43;;;;;;;5.24;100.00;100358.16;5979292;29;20035;-78
2023/01/10 01:10:25;;;;;;;21.37;7.30;;;;;;;5.27;100.00;100374.50;5983047;28;20039;-77
2023/01/10 01:13:20;;;;;;;19.65;6.70;;;;;;;5.24;100.00;100394.97;5962671;29;20041;-78
2023/01/10 01:16:16;;;;;;;14.13;6.17;;;;;;;5.18;100.00;100391.00;5978891;29;20043;-77
2023/01/10 01:19:12;;;;;;;17.35;6.25;;;;;;;5.23;100.00;100403.78;5978613;29;20042;-77
2023/01/10 01:22:07;;;;;;;13.87;5.50;;;;;;;5.19;100.00;100405.81;5978048;28;20035;-77
2023/01/10 01:25:03;;;;;;;14.77;6.27;;;;;;;5.31;100.00;100425.91;5979340;29;20768;-77
2023/01/10 01:27:58;;;;;;;12.38;6.18;;;;;;;5.28;100.00;100420.88;5963210;29;20054;-78
2023/01/10 01:30:54;;;;;;;16.33;6.97;;;;;;;5.23;100.00;100415.16;5979569;28;20043;-77
2023/01/10 01:33:50;;;;;;;15.00;5.70;;;;;;;5.28;100.00;100422.66;5978478;29;20379;-78
2023/01/10 01:36:46;;;;;;;14.98;6.25;;;;;;;5.19;100.00;100423.41;5979186;28;20035;-77
2023/01/10 01:39:41;;;;;;;16.98;6.25;;;;;;;5.26;100.00;100437.72;5983380;28;20039;-77
2023/01/10 01:42:36;;;;;;;19.93;5.70;;;;;;;5.22;100.00;100438.91;5983103;29;20452;-76
2023/01/10 01:45:35;;;;;;;16.40;6.00;;;;;;;5.32;100.00;100463.53;5983537;28;20043;-77
2023/01/10 01:48:38;;;;;;;17.15;6.38;;;;;;;5.31;100.00;100461.84;5989151;28;20490;-77
2023/01/10 01:51:34;;;;;;;15.95;7.00;;;;;;;5.21;100.00;100453.00;5960062;29;20039;-76
2023/01/10 01:54:30;;;;;;;20.88;6.30;;;;;;;5.34;100.00;100474.75;5981266;29;20442;-75
2023/01/10 01:57:27;;;;;;;16.65;7.10;;;;;;;5.26;100.00;100466.63;5966055;29;20023;-76
2023/01/10 02:00:22;;;;;;;19.70;7.05;;;;;;;5.18;100.00;100469.84;5960322;29;20505;-76
2023/01/10 02:03:17;;;;;;;16.70;6.97;;;;;;;5.15;100.00;100466.63;5982349;28;20043;-76
2023/01/10 02:06:14;;;;;;;13.57;6.63;;;;;;;5.15;100.00;100474.50;5966289;29;20106;-77
2023/01/10 02:09:33;;;;;;;14.70;6.35;;;;;;;5.11;100.00;100459.94;5965876;29;20514;-76
2023/01/10 02:12:31;;;;;;;14.27;6.28;;;;;;;5.13;100.00;100481.69;5968014;28;20548;-75
2023/01/10 02:15:26;;;;;;;18.70;6.88;;;;;;;5.10;100.00;100487.16;5960447;29;20538;-75
2023/01/10 02:18:22;;;;;;;15.77;6.10;;;;;;;5.04;100.00;100501.59;5982683;28;20042;-76
2023/01/10 02:21:47;;;;;;;16.40;6.97;;;;;;;5.08;100.00;100516.16;5965413;29;20043;-76
2023/01/10 02:25:35;;;;;;;18.00;6.90;;;;;;;5.06;100.00;100517.25;5960703;29;20084;-77
2023/01/10 02:29:00;;;;;;;14.57;6.13;;;;;;;4.92;100.00;100493.81;5907072;29;20050;-75
2023/01/10 02:32:07;;;;;;;12.93;5.95;;;;;;;4.99;100.00;100510.78;5887680;29;20062;-76
2023/01/10 02:35:20;;;;;;;17.98;7.03;;;;;;;5.02;100.00;100526.31;5982020;28;20114;-75
2023/01/10 02:38:27;;;;;;;14.93;6.70;;;;;;;5.00;100.00;100533.50;5981636;28;20117;-77
2023/01/10 02:41:32;;;;;;;16.10;6.82;;;;;;;4.80;100.00;100506.91;5980057;28;20046;-75
2023/01/10 02:45:02;;;;;;;15.23;7.03;;;;;;;4.93;100.00;100540.13;5981711;29;20071;-75
2023/01/10 02:47:58;;;;;;;18.75;6.55;;;;;;;4.91;100.00;100526.28;5957281;28;20075;-75
2023/01/10 02:51:00;;;;;;;17.92;6.95;;;;;;;5.09;100.00;100559.06;5981127;29;20035;-77
2023/01/10 02:53:59;;;;;;;14.90;6.30;;;;;;;5.02;100.00;100544.72;5981084;28;20488;-76
2023/01/10 02:57:09;;;;;;;13.52;6.07;;;;;;;5.14;100.00;100570.06;5986119;28;20041;-76
2023/01/10 03:00:26;;;;;;;14.27;5.57;;;;;;;5.18;100.00;100567.09;5964556;29;20035;-75
2023/01/10 03:03:41;;;;;;;11.70;5.70;;;;;;;5.21;100.00;100579.19;5963850;29;20527;-75
2023/01/10 03:06:55;;;;;;;12.55;6.43;;;;;;;5.16;100.00;100570.81;5963995;29;20090;-73
2023/01/10 03:10:02;;;;;;;20.90;6.05;;;;;;;5.18;100.00;100590.75;5963641;28;20066;-74
2023/01/10 03:13:02;;;;;;;19.20;6.13;;;;;;;5.13;100.00;100595.53;5963297;29;20035;-73
2023/01/10 03:15:58;;;;;;;15.05;4.72;;;;;;;4.97;100.00;100586.25;5981294;28;20154;-72
2023/01/10 03:18:57;;;;;;;12.05;5.10;;;;;;;5.00;100.00;100602.63;5964027;29;20046;-75
2023/01/10 03:21:55;;;;;;;15.25;5.90;;;;;;;4.97;100.00;100604.66;5963580;29;20039;-74
2023/01/10 03:24:53;;;;;;;12.88;4.45;;;;;;;5.01;100.00;100611.34;5981453;29;20427;-73
2023/01/10 03:27:57;;;;;;;11.13;5.05;;;;;;;5.01;100.00;100621.84;5984757;28;20038;-75
2023/01/10 03:31:03;;;;;;;14.57;4.80;;;;;;;4.97;100.00;100617.78;5963714;28;20027;-75
2023/01/10 03:33:58;;;;;;;16.42;6.25;;;;;;;4.93;100.00;100621.59;5962871;29;20042;-75
2023/01/10 03:37:23;;;;;;;16.93;4.70;;;;;;;4.91;100.00;100634.84;5980496;29;20502;-75
2023/01/10 03:40:42;;;;;;;12.20;4.90;;;;;;;4.98;100.00;100641.31;5980537;28;20031;-74
2023/01/10 03:47:05;;;;;;;16.17;4.75;;;;;;;4.97;100.00;100638.81;5976843;28;20112;-74
2023/01/10 03:50:04;;;;;;;25.17;7.13;;;;;;;5.00;100.00;100651.72;5963497;29;20038;-75
2023/01/10 03:52:59;;;;;;;22.25;6.15;;;;;;;5.06;100.00;100661.78;5972464;29;20031;-74
2023/01/10 03:55:54;;;;;;;18.40;5.30;;;;;;;5.04;100.00;100666.31;5979917;29;20038;-75
2023/01/10 03:58:49;;;;;;;13.97;4.93;;;;;;;4.98;100.00;100669.38;5980369;29;20882;-75
2023/01/10 04:01:45;;;;;;;16.20;4.30;;;;;;;4.93;100.00;100668.88;5991384;28;20277;-75
2023/01/10 04:04:40;;;;;;;9.90;4.43;;;;;;;4.74;100.00;100659.69;5990817;28;20046;-75
2023/01/10 04:07:35;;;;;;;12.90;4.30;;;;;;;4.81;100.00;100679.31;5980157;29;20073;-75
2023/01/10 04:10:31;;;;;;;12.77;3.97;;;;;;;4.84;100.00;100675.63;5979895;29;20053;-74
2023/01/10 04:13:26;;;;;;;14.43;4.03;;;;;;;4.87;100.00;100695.59;5979646;29;20046;-74
2023/01/10 04:16:21;;;;;;;12.20;3.33;;;;;;;4.81;100.00;100705.59;5979900;29;20027;-76
2023/01/10 04:19:17;;;;;;;10.52;2.72;;;;;;;4.77;100.00;100701.50;5979384;28;20101;-74
2023/01/10 04:22:12;;;;;;;9.23;3.40;;;;;;;4.79;100.00;100720.63;5978929;29;20043;-76
2023/01/10 04:25:07;;;;;;;14.23;3.50;;;;;;;4.80;100.00;100727.56;5979649;28;20034;-75
2023/01/10 04:28:03;;;;;;;5.05;2.47;;;;;;;4.81;100.00;100726.59;5980001;29;20031;-74
2023/01/10 04:30:58;;;;;;;8.27;2.53;;;;;;;4.71;100.00;100707.19;5979444;29;20043;-75
2023/01/10 04:33:53;;;;;;;8.13;2.40;;;;;;;4.82;100.00;100728.28;5979733;29;20038;-74
2023/01/10 04:36:49;;;;;;;8.93;2.23;;;;;;;4.74;100.00;100721.91;5979045;28;20127;-75
2023/01/10 04:39:44;;;;;;;7.93;3.38;;;;;;;4.78;100.00;100729.44;5979237;28;20349;-75
2023/01/10 04:42:40;;;;;;;7.30;2.53;;;;;;;4.84;100.00;100730.78;5962068;28;20042;-76
2023/01/10 04:45:35;;;;;;;6.43;2.33;;;;;;;4.93;100.00;100747.69;5979051;28;20474;-77
2023/01/10 04:48:30;;;;;;;13.63;2.80;;;;;;;4.94;100.00;100755.47;5979452;28;20039;-76
2023/01/10 04:51:26;;;;;;;13.53;2.70;;;;;;;4.91;100.00;100773.25;5979333;29;20294;-74
2023/01/10 04:54:22;;;;;;;8.65;2.75;;;;;;;4.87;100.00;100756.84;5988760;28;20482;-76
2023/01/10 04:57:17;;;;;;;11.85;2.33;;;;;;;5.00;100.00;100780.47;5979397;29;20038;-74
2023/01/10 05:00:13;;;;;;;13.13;2.37;;;;;;;4.93;100.00;100776.59;5979586;29;20046;-75
2023/01/10 05:03:08;;;;;;;8.40;2.67;;;;;;;4.93;100.00;100772.19;5978756;29;20034;-76
2023/01/10 05:06:04;;;;;;;9.30;2.40;;;;;;;5.01;100.00;100787.41;5979128;29;20035;-73
2023/01/10 05:08:59;;;;;;;6.75;2.45;;;;;;;4.94;100.00;100780.91;5978608;28;20027;-75
2023/01/10 05:11:55;;;;;;;8.00;2.53;;;;;;;4.86;100.00;100776.19;5977296;28;20053;-75
2023/01/10 05:14:50;;;;;;;12.30;2.37;;;;;;;4.96;100.00;100797.41;5978649;28;20039;-75
2023/01/10 05:17:45;;;;;;;11.67;3.03;;;;;;;4.85;100.00;100797.31;5979123;29;20031;-73
2023/01/10 05:20:40;;;;;;;8.13;2.78;;;;;;;4.81;100.00;100787.00;5978991;29;20035;-75
2023/01/10 05:23:36;;;;;;;9.23;2.70;;;;;;;4.80;100.00;100790.59;5978813;29;20457;-75
2023/01/10 05:26:31;;;;;;;6.82;2.95;;;;;;;4.91;100.00;100812.66;5978998;28;20031;-75
2023/01/10 05:29:27;;;;;;;12.50;3.10;;;;;;;4.82;100.00;100814.97;5986222;28;20043;-74
2023/01/10 05:32:22;;;;;;;11.67;2.83;;;;;;;4.86;100.00;100830.53;5978732;29;20483;-74
2023/01/10 05:35:17;;;;;;;5.68;2.33;;;;;;;4.82;100.00;100835.16;5979006;29;20184;-74
2023/01/10 05:38:13;;;;;;;15.57;3.00;;;;;;;4.81;100.00;100834.28;5978673;29;20042;-75
2023/01/10 05:41:08;;;;;;;9.70;3.23;;;;;;;4.82;100.00;100845.66;5979153;29;20078;-74
2023/01/10 05:44:04;;;;;;;12.18;3.30;;;;;;;4.78;100.00;100844.19;5977276;28;20162;-75
2023/01/10 05:46:59;;;;;;;15.43;3.83;;;;;;;4.68;100.00;100849.22;5978721;28;20047;-75
2023/01/10 05:49:54;;;;;;;9.53;2.67;;;;;;;4.63;100.00;100855.75;5978884;28;20042;-76
2023/01/10 05:52:49;;;;;;;10.23;2.77;;;;;;;4.60;100.00;100856.78;5978474;29;20046;-76
2023/01/10 05:55:56;;;;;;;12.33;3.40;;;;;;;4.54;100.00;100859.00;5978978;29;20102;-75
2023/01/10 05:58:51;;;;;;;9.23;2.88;;;;;;;4.53;100.00;100868.66;5978159;29;20039;-76
2023/01/10 06:01:47;;;;;;;10.70;3.73;;;;;;;4.48;100.00;100883.91;5978442;28;20573;-75
2023/01/10 06:04:42;;;;;;;13.63;2.72;;;;;;;4.50;100.00;100895.13;5978504;29;20039;-74
2023/01/10 06:07:38;;;;;;;14.27;3.27;;;;;;;4.44;100.00;100887.66;5961936;29;20035;-76
2023/01/10 06:10:33;;;;;;;9.20;2.72;;;;;;;4.42;100.00;100899.22;5978332;28;20274;-76
2023/01/10 06:13:28;;;;;;;7.00;2.63;;;;;;;4.23;100.00;100881.22;5978391;29;20378;-75
2023/01/10 06:16:24;;;;;;;15.40;3.80;;;;;;;4.21;100.00;100904.09;5978685;29;20038;-75
2023/01/10 06:19:19;;;;;;;14.75;3.95;;;;;;;4.13;100.00;100911.66;5978010;28;20330;-76
2023/01/10 06:22:14;;;;;;;14.67;3.40;;;;;;;4.01;100.00;100912.44;5986308;28;20035;-75
2023/01/10 06:25:13;;;;;;;9.13;3.17;;;;;;;3.97;100.00;100930.13;5986040;28;20045;-75
2023/01/10 06:28:09;;;;;;;9.27;3.40;;;;;;;4.03;100.00;100944.63;5982365;28;20031;-75
2023/01/10 06:31:05;;;;;;;9.70;3.45;;;;;;;3.92;100.00;100931.38;5987659;28;20043;-76
2023/01/10 06:34:01;;;;;;;9.13;3.10;;;;;;;4.00;100.00;100939.59;5981528;28;20053;-76
2023/01/10 06:36:57;;;;;;;15.30;4.13;;;;;;;4.07;100.00;100943.53;5982333;28;20368;-75
2023/01/10 06:39:52;;;;;;;14.20;4.28;;;;;;;4.19;100.00;100950.56;5987712;28;20390;-75
2023/01/10 06:42:48;;;;;;;13.63;3.73;;;;;;;4.23;100.00;100957.31;5985413;28;20075;-75
2023/01/10 06:45:43;;;;;;;13.45;4.18;;;;;;;4.26;100.00;100957.13;5981585;28;20475;-75
2023/01/10 06:48:39;;;;;;;9.30;4.50;;;;;;;4.38;100.00;100979.94;5981940;28;20082;-75
2023/01/10 06:51:34;;;;;;;14.83;3.77;;;;;;;4.34;100.00;100960.09;5982945;28;20027;-75
2023/01/10 06:54:29;;;;;;;8.53;4.07;;;;;;;4.39;100.00;100972.91;5981316;28;20290;-76
2023/01/10 06:57:27;;;;;;;12.07;3.77;;;;;;;4.38;100.00;100974.69;5981838;28;20086;-74
2023/01/10 07:00:23;;;;;;;15.38;4.38;;;;;;;4.44;100.00;100984.78;5981580;29;20035;-74
2023/01/10 07:03:18;;;;;;;11.10;3.67;;;;;;;4.43;100.00;100992.78;5981329;28;20094;-77
2023/01/10 07:06:14;;;;;;;14.07;3.60;;;;;;;4.35;100.00;100990.63;5980425;29;20039;-76
2023/01/10 07:09:09;;;;;;;9.20;3.65;;;;;;;4.39;100.00;101007.03;5981431;29;20050;-74
2023/01/10 07:12:04;;;;;;;12.93;3.30;;;;;;;4.20;100.00;100996.88;5980951;29;20039;-76
2023/01/10 07:15:00;;;;;;;10.68;3.58;;;;;;;4.16;100.00;101004.09;5981733;29;20454;-73
2023/01/10 07:17:56;;;;;;;12.20;3.90;;;;;;;4.03;100.00;100999.75;5980147;29;20027;-76
2023/01/10 07:20:52;;;;;;;17.83;3.67;;;;;;;4.09;100.00;101018.56;5980439;29;20471;-74
2023/01/10 07:23:50;;;;;;;9.60;3.57;;;;;;;4.03;100.00;101033.84;5980166;29;20042;-77
2023/01/10 07:26:45;;;;;;;19.08;4.30;;;;;;;3.99;100.00;101032.38;5981221;29;20023;-76
2023/01/10 07:29:40;;;;;;;17.83;4.77;;;;;;;4.02;100.00;101037.44;5981453;29;20047;-77
2023/01/10 07:32:36;;;;;;;11.70;3.80;;;;;;;3.92;100.00;101024.03;5979973;29;20036;-74
2023/01/10 07:35:31;;;;;;;12.38;4.43;;;;;;;3.96;100.00;101038.66;5980471;28;20114;-76
2023/01/10 07:38:27;;;;;;;13.87;3.90;;;;;;;3.98;100.00;101041.16;5980515;29;20487;-76
2023/01/10 07:41:22;;;;;;;19.05;4.90;;;;;;;4.02;100.00;101043.50;5984971;28;20019;-78
2023/01/10 07:44:17;;;;;;;15.90;5.37;;;;;;;4.07;100.00;101045.84;5988953;28;20501;-76
2023/01/10 07:47:13;;;;;;;13.83;4.07;;;;;;;4.17;100.00;101052.19;5979781;28;20035;-73
2023/01/10 07:50:09;;;;;;;8.53;3.60;;;;;;;4.16;100.00;101035.59;5980615;29;20050;-77
2023/01/10 07:53:05;;;;;;;10.23;5.22;;;;;;;4.33;100.00;101060.78;5979239;29;20039;-76
2023/01/10 07:56:02;;;;;;;13.85;4.97;;;;;;;4.29;100.00;101053.19;5980295;29;20031;-77
2023/01/10 07:58:57;;;;;;;16.48;5.35;;;;;;;4.46;100.00;101066.91;5979443;29;20035;-76
2023/01/10 08:01:53;;;;;;;12.87;4.43;;;;;;;4.46;100.00;101048.53;5979396;29;20392;-77
2023/01/10 08:04:48;;;;;;;17.20;6.25;;;;;;;4.57;100.00;101074.94;5980237;29;20493;-76
2023/01/10 08:07:43;;;;;;;11.07;4.57;;;;;;;4.47;100.00;101034.47;5979202;29;20031;-76
2023/01/10 08:10:39;;;;;;;13.27;4.80;;;;;;;4.69;100.00;101066.28;5979697;29;20034;-77
2023/01/10 08:13:34;;;;;;;10.27;4.75;;;;;;;4.72;100.00;101065.25;5978367;29;20113;-76
2023/01/10 08:16:30;;;;;;;20.43;5.60;;;;;;;4.61;100.00;101050.19;5979730;29;20086;-76
2023/01/10 08:19:25;;;;;;;17.87;6.00;;;;;;;4.65;100.00;101058.69;5979635;29;20058;-76
2023/01/10 08:22:20;;;;;;;15.60;5.33;;;;;;;4.67;100.00;101057.66;5979308;29;20114;-76
2023/01/10 08:25:15;;;;;;;16.47;7.07;;;;;;;4.77;100.00;101074.50;5979828;29;20039;-75
2023/01/10 08:28:11;;;;;;;17.73;6.60;;;;;;;4.95;100.00;101087.34;5979108;29;20047;-78
2023/01/10 08:31:08;;;;;;;18.48;5.22;;;;;;;5.03;100.00;101085.09;5979397;29;20286;-78
2023/01/10 08:34:03;;;;;;;16.83;5.45;;;;;;;5.01;100.00;101081.72;5960721;29;20038;-77
2023/01/10 08:36:58;;;;;;;22.70;6.40;;;;;;;5.07;100.00;101094.44;5978694;29;20035;-75
2023/01/10 08:39:54;;;;;;;15.60;6.10;;;;;;;5.02;100.00;101088.66;5979313;29;20086;-77
2023/01/10 08:43:05;;;;;;;13.77;6.37;;;;;;;5.09;100.00;101103.91;5978653;29;20030;-75
2023/01/10 08:46:01;;;;;;;23.65;7.90;;;;;;;5.05;100.00;101098.97;5978151;28;20031;-75
2023/01/10 08:48:56;;;;;;;16.57;7.27;;;;;;;5.15;100.00;101115.81;5978719;29;20121;-75
2023/01/10 08:51:51;;;;;;;21.57;7.50;;;;;;;5.10;100.00;101116.13;5978529;29;20043;-75
2023/01/10 08:54:47;;;;;;;18.43;7.60;;;;;;;5.06;100.00;101116.41;5978974;29;20619;-76
2023/01/10 08:57:42;;;;;;;21.87;7.77;;;;;;;5.21;100.00;101131.19;5978627;29;20290;-76
2023/01/10 09:00:37;;;;;;;19.07;7.70;;;;;;;5.15;100.00;101119.28;5978673;29;20279;-76
2023/01/10 09:03:33;;;;;;;19.17;8.43;;;;;;;5.28;100.00;101135.94;5978162;29;20074;-77
2023/01/10 09:06:28;;;;;;;17.70;7.97;;;;;;;5.27;100.00;101130.78;5961879;29;20118;-74
2023/01/10 09:09:23;;;;;;;20.52;7.45;;;;;;;5.34;100.00;101116.28;5978864;29;20259;-77
2023/01/10 09:15:34;;;;;;;20.42;6.88;;;;;;;5.47;100.00;101116.28;5978880;29;20023;-75
2023/01/10 09:18:29;;;;;;;23.52;7.32;;;;;;;5.53;100.00;101126.38;5978025;29;20039;-76
2023/01/10 09:21:27;;;;;;;21.90;7.03;;;;;;;5.57;100.00;101117.34;5978883;29;20039;-77
2023/01/10 09:24:22;;;;;;;20.02;6.75;;;;;;;5.70;100.00;101115.56;5978065;29;20027;-76
2023/01/10 09:27:17;;;;;;;15.57;6.68;;;;;;;5.85;100.00;101118.00;5978796;29;20039;-76
2023/01/10 09:30:13;;;;;;;21.83;7.00;;;;;;;5.98;100.00;101134.63;5978536;28;20041;-77
2023/01/10 09:33:08;;;;;;;15.65;6.30;;;;;;;6.04;100.00;101138.63;5977386;29;20028;-75
2023/01/10 09:36:04;;;;;;;17.15;6.40;;;;;;;5.97;100.00;101145.28;5978838;29;20024;-78
2023/01/10 09:38:59;;;;;;;14.65;6.22;;;;;;;6.01;100.00;101138.03;5978334;29;20032;-77
2023/01/10 09:42:05;;;;;;;12.63;5.80;;;;;;;6.04;100.00;101169.38;5978155;29;20035;-76
2023/01/10 09:45:18;;;;;;;19.27;5.85;;;;;;;6.06;100.00;101163.06;5978216;29;20047;-76
2023/01/10 09:48:23;;;;;;;12.32;5.25;;;;;;;6.02;100.00;101168.66;5949730;29;20058;-76
2023/01/10 09:51:35;;;;;;;12.45;6.00;;;;;;;6.13;100.00;101176.66;5961077;29;20035;-75
2023/01/10 09:54:32;;;;;;;10.77;5.35;;;;;;;6.11;100.00;101150.44;5960960;29;20086;-76
2023/01/10 09:57:28;;;;;;;10.07;5.18;;;;;;;6.26;98.96;101164.31;5961403;28;20098;-77
2023/01/10 10:00:37;;;;;;;14.18;5.80;;;;;;;6.38;98.95;101172.22;5982468;29;20031;-76
2023/01/10 10:03:42;;;;;;;17.70;5.35;;;;;;;6.36;98.97;101163.53;5964404;29;20035;-77
2023/01/10 10:06:37;;;;;;;13.95;5.70;;;;;;;6.36;98.56;101170.63;5970904;28;20081;-77
2023/01/10 10:09:34;;;;;;;12.43;5.20;;;;;;;6.31;97.76;101168.31;5984470;28;20043;-77
2023/01/10 10:12:40;;;;;;;20.27;5.88;;;;;;;6.29;98.05;101170.22;5981662;29;20070;-75
2023/01/10 10:15:57;;;;;;;16.08;5.30;;;;;;;6.31;97.41;101173.56;5965462;29;20039;-76
2023/01/10 10:19:15;;;;;;;14.95;5.35;;;;;;;6.35;97.29;101182.09;5982957;29;20035;-76
2023/01/10 10:22:29;;;;;;;14.63;5.22;;;;;;;6.22;97.23;101155.81;5964650;29;20047;-77
2023/01/10 10:25:43;;;;;;;19.17;5.30;;;;;;;6.38;97.34;101189.78;5982161;29;20090;-76
2023/01/10 10:29:15;;;;;;;13.38;5.53;;;;;;;6.30;96.88;101176.31;5966536;29;20070;-76
2023/01/10 10:32:49;;;;;;;18.73;5.18;;;;;;;6.29;97.57;101193.06;5982250;29;20043;-76
2023/01/10 10:35:51;;;;;;;21.27;5.13;;;;;;;6.31;97.38;101188.53;5967447;29;20391;-78
2023/01/10 10:38:47;;;;;;;15.10;5.53;;;;;;;6.28;97.13;101165.88;5970578;29;20023;-77
2023/01/10 10:41:44;;;;;;;15.77;5.40;;;;;;;6.41;97.49;101168.50;5965014;29;20042;-78
2023/01/10 10:44:48;;;;;;;18.60;5.55;;;;;;;6.39;96.34;101178.28;5965623;29;20062;-75
2023/01/10 10:47:49;;;;;;;13.60;5.53;;;;;;;6.25;96.81;101170.53;5965425;29;20038;-78
2023/01/10 10:51:06;;;;;;;14.98;7.18;;;;;;;6.37;97.53;101188.09;5965269;29;20114;-77
2023/01/10 10:54:01;;;;;;;19.77;5.90;;;;;;;6.32;97.91;101187.59;5975634;29;20054;-76
2023/01/10 10:56:57;;;;;;;16.80;6.28;;;;;;;6.41;97.02;101189.59;5964167;29;20627;-77
2023/01/10 10:59:52;;;;;;;20.70;6.15;;;;;;;6.39;97.21;101176.50;5982205;29;20395;-78
2023/01/10 11:02:51;;;;;;;18.85;5.40;;;;;;;6.43;96.59;101185.03;5980639;28;20113;-79
2023/01/10 11:05:47;;;;;;;13.70;6.22;;;;;;;6.72;96.95;101194.34;5968633;29;20086;-78
2023/01/10 11:08:44;;;;;;;19.95;6.20;;;;;;;6.68;96.55;101182.38;5980681;29;20527;-77
2023/01/10 11:11:44;;;;;;;15.52;5.68;;;;;;;6.58;95.24;101170.78;5964266;29;20050;-78
2023/01/10 11:14:46;;;;;;;15.98;5.90;;;;;;;6.54;95.63;101193.03;5964380;29;20042;-75
2023/01/10 11:17:41;;;;;;;13.65;5.90;;;;;;;6.41;95.81;101179.06;5981750;29;20058;-76
2023/01/10 11:20:37;;;;;;;17.63;5.97;;;;;;;6.48;95.81;101201.34;5963166;29;20046;-77
2023/01/10 11:23:52;;;;;;;23.85;6.25;;;;;;;6.47;95.85;101207.56;5980118;29;20138;-77
2023/01/10 11:26:47;;;;;;;20.05;5.60;;;;;;;6.31;96.48;101199.06;5964285;29;20043;-78
2023/01/10 11:29:46;;;;;;;16.75;5.78;;;;;;;6.33;96.02;101207.72;5963734;29;20098;-77
2023/01/10 11:33:01;;;;;;;21.77;6.13;;;;;;;6.34;95.96;101204.13;5980124;29;20038;-79
2023/01/10 11:35:57;;;;;;;17.77;5.53;;;;;;;6.42;95.67;101207.91;5972903;29;20066;-76
2023/01/10 11:39:03;;;;;;;12.95;5.63;;;;;;;6.34;95.42;101190.94;5964761;29;20031;-79
2023/01/10 11:42:28;;;;;;;13.43;5.22;;;;;;;6.52;95.80;101216.03;5980635;29;20058;-78
2023/01/10 11:45:30;;;;;;;12.60;5.63;;;;;;;6.51;95.20;101201.16;5980553;28;20530;-75
2023/01/10 11:48:25;;;;;;;19.73;5.55;;;;;;;6.57;93.96;101200.72;5981074;29;20176;-78
2023/01/10 11:51:38;;;;;;;14.67;5.00;;;;;;;6.47;93.77;101183.84;5981408;29;20027;-77
2023/01/10 11:54:34;;;;;;;14.15;4.78;;;;;;;6.60;93.92;101197.88;5963349;29;20270;-78
2023/01/10 11:57:30;;;;;;;12.30;4.97;;;;;;;6.54;93.97;101191.25;5982517;28;20031;-76
2023/01/10 12:00:31;;;;;;;14.88;5.63;;;;;;;6.64;93.63;101166.84;5980175;29;20059;-78
2023/01/10 12:03:31;;;;;;;14.80;4.57;;;;;;;6.73;93.16;101180.22;5978940;29;20557;-76
2023/01/10 12:06:29;;;;;;;14.38;5.07;;;;;;;6.87;93.55;101182.72;5967070;29;20398;-77
2023/01/10 12:09:35;;;;;;;13.98;4.80;;;;;;;7.19;93.20;101198.81;5962688;29;20034;-77
2023/01/10 12:12:33;;;;;;;17.13;4.97;;;;;;;7.22;91.38;101195.13;5985321;28;20081;-78
2023/01/10 12:15:30;;;;;;;9.25;3.50;;;;;;;7.12;90.92;101198.41;5977147;29;20034;-76
2023/01/10 12:18:25;;;;;;;12.20;5.05;;;;;;;6.96;91.01;101186.47;5994230;28;20097;-75
2023/01/10 12:21:25;;;;;;;13.20;4.50;;;;;;;6.97;91.48;101199.56;5969291;28;20494;-77
2023/01/10 12:24:28;;;;;;;17.88;4.22;;;;;;;6.79;92.12;101179.81;5978733;29;20122;-77
2023/01/10 12:27:24;;;;;;;11.00;4.53;;;;;;;6.92;92.74;101201.69;5962580;29;20031;-77
2023/01/10 12:30:26;;;;;;;20.85;5.03;;;;;;;6.85;92.54;101189.06;5979304;29;20524;-76
2023/01/10 12:33:29;;;;;;;15.55;4.55;;;;;;;6.85;92.80;101205.69;5978573;29;20042;-77
2023/01/10 12:36:34;;;;;;;14.52;4.35;;;;;;;6.86;93.54;101207.38;5961556;29;20110;-77
2023/01/10 12:39:33;;;;;;;10.10;4.75;;;;;;;6.69;93.33;101173.47;5979390;29;20110;-75
2023/01/10 12:46:16;;;;;;;15.05;4.68;;;;;;;6.77;93.00;101189.59;5979433;28;20335;-77
2023/01/10 12:49:22;;;;;;;15.02;4.65;;;;;;;6.89;92.79;101208.97;5962534;29;20125;-75
2023/01/10 12:52:30;;;;;;;10.45;4.72;;;;;;;6.87;92.93;101197.69;5978955;29;20035;-77
2023/01/10 12:55:36;;;;;;;20.73;4.10;;;;;;;6.88;91.78;101192.28;5962002;29;20046;-77
2023/01/10 12:58:41;;;;;;;16.77;4.72;;;;;;;6.91;91.76;101181.53;5979261;29;20039;-77
2023/01/10 13:01:42;;;;;;;16.80;3.83;;;;;;;7.10;90.96;101202.97;5962385;29;20090;-78
2023/01/10 13:04:41;;;;;;;15.52;4.18;;;;;;;7.12;91.23;101201.06;5962462;29;20035;-77
2023/01/10 13:07:37;;;;;;;11.60;4.47;;;;;;;7.04;91.12;101195.50;5961220;29;20031;-75
2023/01/10 13:10:33;;;;;;;16.10;4.57;;;;;;;6.96;91.56;101187.31;5979277;29;20074;-76
2023/01/10 13:13:34;;;;;;;10.20;4.05;;;;;;;6.99;91.36;101186.25;5961591;29;20031;-77
2023/01/10 13:16:49;;;;;;;15.35;3.72;;;;;;;6.88;89.62;101180.91;5979838;29;20035;-76
2023/01/10 13:20:22;;;;;;;10.70;3.67;;;;;;;6.99;88.80;101196.78;5962127;29;20082;-76
2023/01/10 13:23:26;;;;;;;10.02;3.30;;;;;;;6.99;89.09;101191.50;5978130;29;20039;-76
2023/01/10 13:26:21;;;;;;;8.02;3.05;;;;;;;6.85;88.80;101174.06;5962196;29;20127;-76
2023/01/10 13:29:19;;;;;;;15.27;4.50;;;;;;;6.91;88.50;101192.06;5979016;29;20035;-77
2023/01/10 13:32:21;;;;;;;16.63;4.40;;;;;;;6.88;88.88;101179.13;5959307;28;20274;-77
2023/01/10 13:35:17;;;;;;;11.15;3.58;;;;;;;6.97;89.28;101196.91;5983353;29;20046;-78
2023/01/10 13:38:20;;;;;;;11.93;3.72;;;;;;;6.94;89.88;101193.66;5966413;29;20070;-77
2023/01/10 13:45:12;;;;;;;16.13;3.70;;;;;;;6.98;89.53;101185.44;5982018;29;20110;-77
2023/01/10 13:48:24;;;;;;;12.10;3.17;;;;;;;6.87;90.00;101180.09;5983675;28;20047;-76
2023/01/10 13:51:21;;;;;;;11.57;4.00;;;;;;;6.80;90.17;101176.19;5981319;29;20069;-77
2023/01/10 13:54:16;;;;;;;12.23;4.05;;;;;;;6.88;89.93;101192.28;5955683;29;20164;-75
2023/01/10 13:57:50;;;;;;;10.87;3.67;;;;;;;6.87;89.95;101188.00;5983774;29;20217;-78
2023/01/10 14:04:18;;;;;;;13.13;3.95;;;;;;;6.69;90.34;101176.13;5964773;29;20493;-75
2023/01/10 14:07:28;;;;;;;17.08;3.78;;;;;;;6.70;90.01;101180.44;5981580;29;20035;-77
2023/01/10 14:10:29;;;;;;;17.58;4.10;;;;;;;6.66;89.13;101178.97;5961140;29;20074;-76
2023/01/10 14:13:24;;;;;;;14.57;4.95;;;;;;;6.61;89.69;101181.09;5964897;29;20034;-78